Impacts TAF Board
For situational awareness. Not to be used for flight planning purposes.
IDs:

KEWR - Newark Intl, NJ, US

Issued at 2332 UTC 02 Oct 2022
Updated at 2333 UTC 02 Oct 2022
Potential Impact None Slight Moderate High
Time<<03/12Z 03/13Z 03/14Z 03/15Z 03/16Z 03/17Z 03/18Z 03/19Z 03/20Z 03/21Z 03/22Z 03/23Z 04/00Z>>
Type PRVL PRVL PRVL PRVL PRVL PRVL PRVL PRVL PRVL PRVL PRVL PRVL PRVL
VIS >6 >6 >6 >6 >6 >6 >6 >6 >6 >6 >6 >6 >6
CIG 100 100 100 100 100 100 100 100 100 100 90 90 90
Cover BKN BKN BKN BKN BKN BKN BKN BKN BKN BKN BKN BKN BKN
FltCat VFR VFR VFR VFR VFR VFR VFR VFR VFR VFR VFR VFR VFR
WX -- -- -- -- -- -- -- -- -- -- -- -- --
WDir 30 30 30 30 30 30 30 30 30 30 40 40 40
WSpd 16 16 16 16 16 16 16 16 16 16 12 12 12
WGst 25 25 25 25 25 25 25 25 25 25 20 20 20
WSHgt -- -- -- -- -- -- -- -- -- -- -- -- --
WSDir -- -- -- -- -- -- -- -- -- -- -- -- --
WSSpd -- -- -- -- -- -- -- -- -- -- -- -- --
Raw TAF
KEWR 022332Z 0300/0406 03017G27KT P6SM BKN035
  TEMPO 0300/0302 5SM -RA BKN025
  FM030200 02016G24KT P6SM VCSH SCT025 BKN035
  FM031200 03016G25KT P6SM SCT030 BKN100
  FM032200 04012G20KT P6SM SCT030 BKN090


METAR Board
Radar Display
Forecast Discussion
For situational awareness. Not to be used for flight planning purposes.